sensor_id;sensor_type;location;lat;lon;timestamp;P1;durP1;ratioP1;P2;durP2;ratioP2
58864;SDS011;45702;52.982;6.658;2022-12-07T00:00:29;18.05;;;4.07;;
58864;SDS011;45702;52.982;6.658;2022-12-07T00:02:55;18.48;;;3.97;;
58864;SDS011;45702;52.982;6.658;2022-12-07T00:05:21;16.17;;;4.10;;
58864;SDS011;45702;52.982;6.658;2022-12-07T00:07:47;17.75;;;4.22;;
58864;SDS011;45702;52.982;6.658;2022-12-07T00:10:13;19.63;;;4.30;;
58864;SDS011;45702;52.982;6.658;2022-12-07T00:12:39;18.70;;;4.25;;
58864;SDS011;45702;52.982;6.658;2022-12-07T00:15:05;21.23;;;3.88;;
58864;SDS011;45702;52.982;6.658;2022-12-07T00:17:31;18.45;;;3.83;;
58864;SDS011;45702;52.982;6.658;2022-12-07T00:19:58;14.40;;;3.67;;
58864;SDS011;45702;52.982;6.658;2022-12-07T00:22:24;14.32;;;3.70;;
58864;SDS011;45702;52.982;6.658;2022-12-07T00:24:50;14.02;;;3.08;;
58864;SDS011;45702;52.982;6.658;2022-12-07T00:27:16;21.05;;;3.85;;
58864;SDS011;45702;52.982;6.658;2022-12-07T00:29:42;18.90;;;3.40;;
58864;SDS011;45702;52.982;6.658;2022-12-07T00:32:08;16.60;;;3.50;;
58864;SDS011;45702;52.982;6.658;2022-12-07T00:34:34;17.83;;;3.90;;
58864;SDS011;45702;52.982;6.658;2022-12-07T00:37:01;14.63;;;3.10;;
58864;SDS011;45702;52.982;6.658;2022-12-07T00:39:27;14.38;;;3.65;;
58864;SDS011;45702;52.982;6.658;2022-12-07T00:41:53;19.75;;;3.67;;
58864;SDS011;45702;52.982;6.658;2022-12-07T00:44:19;14.00;;;3.40;;
58864;SDS011;45702;52.982;6.658;2022-12-07T00:46:45;14.70;;;3.20;;
58864;SDS011;45702;52.982;6.658;2022-12-07T00:49:11;16.65;;;3.47;;
58864;SDS011;45702;52.982;6.658;2022-12-07T00:51:37;15.90;;;3.42;;
58864;SDS011;45702;52.982;6.658;2022-12-07T00:54:03;10.55;;;3.20;;
58864;SDS011;45702;52.982;6.658;2022-12-07T00:56:29;13.43;;;3.63;;
58864;SDS011;45702;52.982;6.658;2022-12-07T00:58:56;14.18;;;3.42;;
58864;SDS011;45702;52.982;6.658;2022-12-07T01:01:23;14.95;;;3.10;;
58864;SDS011;45702;52.982;6.658;2022-12-07T01:03:49;15.30;;;3.33;;
58864;SDS011;45702;52.982;6.658;2022-12-07T01:06:16;18.05;;;3.30;;
58864;SDS011;45702;52.982;6.658;2022-12-07T01:08:43;14.35;;;3.17;;
58864;SDS011;45702;52.982;6.658;2022-12-07T01:11:11;18.10;;;3.30;;
58864;SDS011;45702;52.982;6.658;2022-12-07T01:13:38;15.00;;;2.78;;
58864;SDS011;45702;52.982;6.658;2022-12-07T01:16:05;16.75;;;2.70;;
58864;SDS011;45702;52.982;6.658;2022-12-07T01:18:34;18.58;;;3.25;;
58864;SDS011;45702;52.982;6.658;2022-12-07T01:21:02;14.85;;;2.88;;
58864;SDS011;45702;52.982;6.658;2022-12-07T01:23:29;18.08;;;3.03;;
58864;SDS011;45702;52.982;6.658;2022-12-07T01:25:56;15.35;;;2.83;;
58864;SDS011;45702;52.982;6.658;2022-12-07T01:28:22;13.73;;;2.53;;
58864;SDS011;45702;52.982;6.658;2022-12-07T01:33:30;13.02;;;3.33;;
58864;SDS011;45702;52.982;6.658;2022-12-07T01:36:01;14.88;;;3.10;;
58864;SDS011;45702;52.982;6.658;2022-12-07T01:38:27;16.67;;;2.28;;
58864;SDS011;45702;52.982;6.658;2022-12-07T01:40:54;13.60;;;2.20;;
58864;SDS011;45702;52.982;6.658;2022-12-07T01:43:20;11.48;;;2.08;;
58864;SDS011;45702;52.982;6.658;2022-12-07T01:45:46;12.60;;;2.15;;
58864;SDS011;45702;52.982;6.658;2022-12-07T01:48:13;11.07;;;2.80;;
58864;SDS011;45702;52.982;6.658;2022-12-07T01:50:40;11.67;;;1.80;;
58864;SDS011;45702;52.982;6.658;2022-12-07T01:53:08;12.68;;;1.85;;
58864;SDS011;45702;52.982;6.658;2022-12-07T01:55:36;11.52;;;1.83;;
58864;SDS011;45702;52.982;6.658;2022-12-07T01:58:03;11.15;;;2.70;;
58864;SDS011;45702;52.982;6.658;2022-12-07T02:00:29;9.73;;;1.70;;
58864;SDS011;45702;52.982;6.658;2022-12-07T02:02:57;12.10;;;1.83;;
58864;SDS011;45702;52.982;6.658;2022-12-07T02:05:25;9.63;;;1.70;;
58864;SDS011;45702;52.982;6.658;2022-12-07T02:07:53;11.75;;;1.80;;
58864;SDS011;45702;52.982;6.658;2022-12-07T02:10:24;7.90;;;2.25;;
58864;SDS011;45702;52.982;6.658;2022-12-07T02:12:52;11.77;;;1.92;;
58864;SDS011;45702;52.982;6.658;2022-12-07T02:15:20;9.15;;;1.55;;
58864;SDS011;45702;52.982;6.658;2022-12-07T02:17:53;12.93;;;1.65;;
58864;SDS011;45702;52.982;6.658;2022-12-07T02:25:31;14.45;;;2.05;;
58864;SDS011;45702;52.982;6.658;2022-12-07T02:30:51;13.65;;;1.50;;
58864;SDS011;45702;52.982;6.658;2022-12-07T02:33:41;15.85;;;2.05;;
58864;SDS011;45702;52.982;6.658;2022-12-07T02:36:05;10.38;;;1.52;;
58864;SDS011;45702;52.982;6.658;2022-12-07T02:41:10;14.88;;;1.98;;
58864;SDS011;45702;52.982;6.658;2022-12-07T02:46:05;11.38;;;1.98;;
58864;SDS011;45702;52.982;6.658;2022-12-07T02:48:32;15.20;;;2.22;;
58864;SDS011;45702;52.982;6.658;2022-12-07T02:51:18;14.38;;;1.90;;
58864;SDS011;45702;52.982;6.658;2022-12-07T02:53:44;15.57;;;2.00;;
58864;SDS011;45702;52.982;6.658;2022-12-07T02:56:16;14.80;;;1.98;;
58864;SDS011;45702;52.982;6.658;2022-12-07T03:03:46;12.52;;;2.15;;
58864;SDS011;45702;52.982;6.658;2022-12-07T03:06:22;15.18;;;1.90;;
58864;SDS011;45702;52.982;6.658;2022-12-07T03:11:29;9.45;;;1.50;;
58864;SDS011;45702;52.982;6.658;2022-12-07T03:14:11;12.57;;;1.65;;
58864;SDS011;45702;52.982;6.658;2022-12-07T03:16:41;12.02;;;1.63;;
58864;SDS011;45702;52.982;6.658;2022-12-07T03:19:11;16.33;;;1.63;;
58864;SDS011;45702;52.982;6.658;2022-12-07T03:21:39;7.75;;;1.30;;
58864;SDS011;45702;52.982;6.658;2022-12-07T03:24:08;6.28;;;1.27;;
58864;SDS011;45702;52.982;6.658;2022-12-07T03:26:38;9.40;;;1.23;;
58864;SDS011;45702;52.982;6.658;2022-12-07T03:29:27;13.27;;;1.25;;
58864;SDS011;45702;52.982;6.658;2022-12-07T03:31:55;14.57;;;1.77;;
58864;SDS011;45702;52.982;6.658;2022-12-07T03:34:27;14.18;;;1.65;;
58864;SDS011;45702;52.982;6.658;2022-12-07T03:36:55;14.98;;;1.60;;
58864;SDS011;45702;52.982;6.658;2022-12-07T03:39:31;10.00;;;1.45;;
58864;SDS011;45702;52.982;6.658;2022-12-07T03:41:58;12.00;;;1.80;;
58864;SDS011;45702;52.982;6.658;2022-12-07T03:44:25;8.82;;;1.75;;
58864;SDS011;45702;52.982;6.658;2022-12-07T03:46:57;14.50;;;1.73;;
58864;SDS011;45702;52.982;6.658;2022-12-07T03:49:25;7.50;;;2.20;;
58864;SDS011;45702;52.982;6.658;2022-12-07T03:56:45;12.45;;;1.85;;
58864;SDS011;45702;52.982;6.658;2022-12-07T03:59:12;14.45;;;2.13;;
58864;SDS011;45702;52.982;6.658;2022-12-07T04:01:41;14.85;;;2.10;;
58864;SDS011;45702;52.982;6.658;2022-12-07T04:04:07;17.73;;;2.30;;
58864;SDS011;45702;52.982;6.658;2022-12-07T04:06:33;16.90;;;2.00;;
58864;SDS011;45702;52.982;6.658;2022-12-07T04:08:59;17.02;;;1.98;;
58864;SDS011;45702;52.982;6.658;2022-12-07T04:11:26;15.38;;;2.10;;
58864;SDS011;45702;52.982;6.658;2022-12-07T04:13:52;12.48;;;1.70;;
58864;SDS011;45702;52.982;6.658;2022-12-07T04:16:37;15.82;;;1.80;;
58864;SDS011;45702;52.982;6.658;2022-12-07T04:19:03;14.85;;;1.85;;
58864;SDS011;45702;52.982;6.658;2022-12-07T04:21:29;10.15;;;1.60;;
58864;SDS011;45702;52.982;6.658;2022-12-07T04:23:55;10.32;;;1.70;;
58864;SDS011;45702;52.982;6.658;2022-12-07T04:26:21;12.80;;;1.98;;
58864;SDS011;45702;52.982;6.658;2022-12-07T04:28:47;16.50;;;1.65;;
58864;SDS011;45702;52.982;6.658;2022-12-07T04:31:13;14.07;;;1.98;;
58864;SDS011;45702;52.982;6.658;2022-12-07T04:33:39;15.20;;;1.60;;
58864;SDS011;45702;52.982;6.658;2022-12-07T04:36:05;8.95;;;1.60;;
58864;SDS011;45702;52.982;6.658;2022-12-07T04:38:32;14.13;;;1.92;;
58864;SDS011;45702;52.982;6.658;2022-12-07T04:40:58;12.10;;;1.80;;
58864;SDS011;45702;52.982;6.658;2022-12-07T04:43:29;10.25;;;1.80;;
58864;SDS011;45702;52.982;6.658;2022-12-07T04:45:55;17.13;;;1.70;;
58864;SDS011;45702;52.982;6.658;2022-12-07T04:48:21;14.10;;;2.22;;
58864;SDS011;45702;52.982;6.658;2022-12-07T04:50:48;11.25;;;1.60;;
58864;SDS011;45702;52.982;6.658;2022-12-07T04:53:17;13.13;;;1.70;;
58864;SDS011;45702;52.982;6.658;2022-12-07T04:55:44;11.48;;;2.17;;
58864;SDS011;45702;52.982;6.658;2022-12-07T04:58:10;19.90;;;2.05;;
58864;SDS011;45702;52.982;6.658;2022-12-07T05:00:36;10.88;;;1.70;;
58864;SDS011;45702;52.982;6.658;2022-12-07T05:03:02;11.55;;;1.70;;
58864;SDS011;45702;52.982;6.658;2022-12-07T05:05:28;13.63;;;1.50;;
58864;SDS011;45702;52.982;6.658;2022-12-07T05:07:54;12.32;;;2.30;;
58864;SDS011;45702;52.982;6.658;2022-12-07T05:10:20;15.63;;;2.22;;
58864;SDS011;45702;52.982;6.658;2022-12-07T05:12:46;12.20;;;1.73;;
58864;SDS011;45702;52.982;6.658;2022-12-07T05:15:12;12.80;;;1.70;;
58864;SDS011;45702;52.982;6.658;2022-12-07T05:17:39;10.35;;;1.45;;
58864;SDS011;45702;52.982;6.658;2022-12-07T05:20:05;15.73;;;1.73;;
58864;SDS011;45702;52.982;6.658;2022-12-07T05:22:31;8.35;;;1.83;;
58864;SDS011;45702;52.982;6.658;2022-12-07T05:24:57;9.63;;;1.50;;
58864;SDS011;45702;52.982;6.658;2022-12-07T05:27:23;13.43;;;1.70;;
58864;SDS011;45702;52.982;6.658;2022-12-07T05:29:50;13.05;;;1.73;;
58864;SDS011;45702;52.982;6.658;2022-12-07T05:32:17;12.27;;;2.28;;
58864;SDS011;45702;52.982;6.658;2022-12-07T05:34:43;15.18;;;1.80;;
58864;SDS011;45702;52.982;6.658;2022-12-07T05:37:09;15.48;;;1.70;;
58864;SDS011;45702;52.982;6.658;2022-12-07T05:39:35;8.77;;;1.73;;
58864;SDS011;45702;52.982;6.658;2022-12-07T05:42:02;10.98;;;1.63;;
58864;SDS011;45702;52.982;6.658;2022-12-07T05:44:38;14.65;;;1.65;;
58864;SDS011;45702;52.982;6.658;2022-12-07T05:47:04;11.65;;;1.58;;
58864;SDS011;45702;52.982;6.658;2022-12-07T05:49:30;14.57;;;1.73;;
58864;SDS011;45702;52.982;6.658;2022-12-07T05:51:56;14.00;;;1.88;;
58864;SDS011;45702;52.982;6.658;2022-12-07T05:54:36;13.52;;;1.77;;
58864;SDS011;45702;52.982;6.658;2022-12-07T05:57:27;17.02;;;1.80;;
58864;SDS011;45702;52.982;6.658;2022-12-07T05:59:53;12.18;;;1.70;;
58864;SDS011;45702;52.982;6.658;2022-12-07T06:02:19;12.05;;;1.95;;
58864;SDS011;45702;52.982;6.658;2022-12-07T06:04:46;13.30;;;1.90;;
58864;SDS011;45702;52.982;6.658;2022-12-07T06:07:13;17.88;;;2.03;;
58864;SDS011;45702;52.982;6.658;2022-12-07T06:09:40;12.77;;;1.90;;
58864;SDS011;45702;52.982;6.658;2022-12-07T06:12:06;15.43;;;1.50;;
58864;SDS011;45702;52.982;6.658;2022-12-07T06:14:51;15.20;;;2.00;;
58864;SDS011;45702;52.982;6.658;2022-12-07T06:17:17;14.60;;;1.70;;
58864;SDS011;45702;52.982;6.658;2022-12-07T06:19:43;23.30;;;1.85;;
58864;SDS011;45702;52.982;6.658;2022-12-07T06:22:09;15.65;;;2.03;;
58864;SDS011;45702;52.982;6.658;2022-12-07T06:24:39;17.67;;;2.00;;
58864;SDS011;45702;52.982;6.658;2022-12-07T06:27:05;11.70;;;2.20;;
58864;SDS011;45702;52.982;6.658;2022-12-07T06:29:32;12.35;;;2.17;;
58864;SDS011;45702;52.982;6.658;2022-12-07T06:31:58;16.35;;;1.80;;
58864;SDS011;45702;52.982;6.658;2022-12-07T06:34:25;9.15;;;1.75;;
58864;SDS011;45702;52.982;6.658;2022-12-07T06:36:52;17.48;;;2.40;;
58864;SDS011;45702;52.982;6.658;2022-12-07T06:39:26;13.68;;;2.00;;
58864;SDS011;45702;52.982;6.658;2022-12-07T06:41:52;15.02;;;2.03;;
58864;SDS011;45702;52.982;6.658;2022-12-07T06:44:19;17.20;;;2.40;;
58864;SDS011;45702;52.982;6.658;2022-12-07T06:46:45;8.27;;;2.55;;
58864;SDS011;45702;52.982;6.658;2022-12-07T06:49:11;12.43;;;2.33;;
58864;SDS011;45702;52.982;6.658;2022-12-07T06:51:37;14.63;;;1.90;;
58864;SDS011;45702;52.982;6.658;2022-12-07T06:54:06;11.02;;;2.00;;
58864;SDS011;45702;52.982;6.658;2022-12-07T06:56:33;13.52;;;2.40;;
58864;SDS011;45702;52.982;6.658;2022-12-07T06:58:59;16.15;;;2.50;;
58864;SDS011;45702;52.982;6.658;2022-12-07T07:01:25;18.58;;;2.88;;
58864;SDS011;45702;52.982;6.658;2022-12-07T07:03:51;14.32;;;2.60;;
58864;SDS011;45702;52.982;6.658;2022-12-07T07:06:17;14.15;;;3.00;;
58864;SDS011;45702;52.982;6.658;2022-12-07T07:08:43;18.50;;;2.80;;
58864;SDS011;45702;52.982;6.658;2022-12-07T07:11:11;18.35;;;4.07;;
58864;SDS011;45702;52.982;6.658;2022-12-07T07:13:37;13.40;;;2.40;;
58864;SDS011;45702;52.982;6.658;2022-12-07T07:16:04;12.13;;;1.92;;
58864;SDS011;45702;52.982;6.658;2022-12-07T07:18:30;11.05;;;2.00;;
58864;SDS011;45702;52.982;6.658;2022-12-07T07:20:56;9.40;;;2.15;;
58864;SDS011;45702;52.982;6.658;2022-12-07T07:23:22;14.35;;;2.10;;
58864;SDS011;45702;52.982;6.658;2022-12-07T07:25:49;13.15;;;2.50;;
58864;SDS011;45702;52.982;6.658;2022-12-07T07:28:15;11.85;;;2.00;;
58864;SDS011;45702;52.982;6.658;2022-12-07T07:30:41;15.30;;;2.25;;
58864;SDS011;45702;52.982;6.658;2022-12-07T07:33:07;14.32;;;2.13;;
58864;SDS011;45702;52.982;6.658;2022-12-07T07:35:34;11.65;;;2.78;;
58864;SDS011;45702;52.982;6.658;2022-12-07T07:38:00;11.68;;;2.10;;
58864;SDS011;45702;52.982;6.658;2022-12-07T07:40:26;12.15;;;2.20;;
58864;SDS011;45702;52.982;6.658;2022-12-07T07:42:54;11.48;;;2.38;;
58864;SDS011;45702;52.982;6.658;2022-12-07T07:45:21;19.02;;;3.72;;
58864;SDS011;45702;52.982;6.658;2022-12-07T07:47:47;19.50;;;4.55;;
58864;SDS011;45702;52.982;6.658;2022-12-07T07:50:13;22.58;;;4.38;;
58864;SDS011;45702;52.982;6.658;2022-12-07T07:52:40;20.45;;;2.97;;
58864;SDS011;45702;52.982;6.658;2022-12-07T07:55:06;14.98;;;2.72;;
58864;SDS011;45702;52.982;6.658;2022-12-07T07:57:34;10.88;;;2.75;;
58864;SDS011;45702;52.982;6.658;2022-12-07T08:00:00;14.05;;;2.78;;
58864;SDS011;45702;52.982;6.658;2022-12-07T08:02:27;12.25;;;3.10;;
58864;SDS011;45702;52.982;6.658;2022-12-07T08:04:54;13.57;;;3.07;;
58864;SDS011;45702;52.982;6.658;2022-12-07T08:07:20;14.38;;;4.13;;
58864;SDS011;45702;52.982;6.658;2022-12-07T08:09:46;12.93;;;2.83;;
58864;SDS011;45702;52.982;6.658;2022-12-07T08:12:12;15.40;;;3.53;;
58864;SDS011;45702;52.982;6.658;2022-12-07T08:14:39;14.18;;;3.40;;
58864;SDS011;45702;52.982;6.658;2022-12-07T08:17:06;16.90;;;4.57;;
58864;SDS011;45702;52.982;6.658;2022-12-07T08:19:32;21.58;;;6.10;;
58864;SDS011;45702;52.982;6.658;2022-12-07T08:21:59;21.35;;;4.22;;
58864;SDS011;45702;52.982;6.658;2022-12-07T08:24:25;16.15;;;4.68;;
58864;SDS011;45702;52.982;6.658;2022-12-07T08:26:51;15.55;;;4.60;;
58864;SDS011;45702;52.982;6.658;2022-12-07T08:29:17;16.75;;;4.20;;
58864;SDS011;45702;52.982;6.658;2022-12-07T08:31:44;13.82;;;4.10;;
58864;SDS011;45702;52.982;6.658;2022-12-07T08:34:10;21.17;;;4.47;;
58864;SDS011;45702;52.982;6.658;2022-12-07T08:36:36;18.48;;;3.75;;
58864;SDS011;45702;52.982;6.658;2022-12-07T08:39:03;16.25;;;3.60;;
58864;SDS011;45702;52.982;6.658;2022-12-07T08:41:29;11.23;;;3.35;;
58864;SDS011;45702;52.982;6.658;2022-12-07T08:43:55;16.63;;;4.07;;
58864;SDS011;45702;52.982;6.658;2022-12-07T08:46:24;16.48;;;3.42;;
58864;SDS011;45702;52.982;6.658;2022-12-07T08:48:52;17.80;;;3.35;;
58864;SDS011;45702;52.982;6.658;2022-12-07T08:51:19;18.38;;;3.10;;
58864;SDS011;45702;52.982;6.658;2022-12-07T08:53:45;17.58;;;2.72;;
58864;SDS011;45702;52.982;6.658;2022-12-07T08:56:11;10.45;;;2.50;;
58864;SDS011;45702;52.982;6.658;2022-12-07T08:58:37;18.45;;;2.92;;
58864;SDS011;45702;52.982;6.658;2022-12-07T09:01:04;23.23;;;3.22;;
58864;SDS011;45702;52.982;6.658;2022-12-07T09:03:31;12.00;;;2.45;;
58864;SDS011;45702;52.982;6.658;2022-12-07T09:05:57;11.43;;;3.17;;
58864;SDS011;45702;52.982;6.658;2022-12-07T09:08:25;20.35;;;3.08;;
58864;SDS011;45702;52.982;6.658;2022-12-07T09:10:52;14.75;;;2.45;;
58864;SDS011;45702;52.982;6.658;2022-12-07T09:13:18;19.15;;;2.97;;
58864;SDS011;45702;52.982;6.658;2022-12-07T09:15:44;20.80;;;3.85;;
58864;SDS011;45702;52.982;6.658;2022-12-07T09:18:10;12.13;;;2.60;;
58864;SDS011;45702;52.982;6.658;2022-12-07T09:20:36;14.15;;;3.35;;
58864;SDS011;45702;52.982;6.658;2022-12-07T09:23:05;11.75;;;2.53;;
58864;SDS011;45702;52.982;6.658;2022-12-07T09:25:31;18.73;;;2.83;;
58864;SDS011;45702;52.982;6.658;2022-12-07T09:27:57;13.95;;;2.92;;
58864;SDS011;45702;52.982;6.658;2022-12-07T09:30:24;14.88;;;2.90;;
58864;SDS011;45702;52.982;6.658;2022-12-07T09:32:52;14.48;;;3.40;;
58864;SDS011;45702;52.982;6.658;2022-12-07T09:35:18;17.90;;;3.28;;
58864;SDS011;45702;52.982;6.658;2022-12-07T09:37:44;17.33;;;3.55;;
58864;SDS011;45702;52.982;6.658;2022-12-07T09:40:10;12.82;;;3.90;;
58864;SDS011;45702;52.982;6.658;2022-12-07T09:42:38;15.55;;;3.50;;
58864;SDS011;45702;52.982;6.658;2022-12-07T09:45:05;10.60;;;2.50;;
58864;SDS011;45702;52.982;6.658;2022-12-07T09:47:32;11.85;;;3.00;;
58864;SDS011;45702;52.982;6.658;2022-12-07T09:50:15;13.77;;;2.97;;
58864;SDS011;45702;52.982;6.658;2022-12-07T09:52:42;17.27;;;3.38;;
58864;SDS011;45702;52.982;6.658;2022-12-07T09:55:11;15.13;;;3.33;;
58864;SDS011;45702;52.982;6.658;2022-12-07T09:57:38;14.63;;;3.42;;
58864;SDS011;45702;52.982;6.658;2022-12-07T10:00:06;27.80;;;3.80;;
58864;SDS011;45702;52.982;6.658;2022-12-07T10:02:37;19.17;;;3.42;;
58864;SDS011;45702;52.982;6.658;2022-12-07T10:05:07;17.30;;;2.55;;
58864;SDS011;45702;52.982;6.658;2022-12-07T10:07:36;8.07;;;2.60;;
58864;SDS011;45702;52.982;6.658;2022-12-07T10:10:03;14.23;;;2.97;;
58864;SDS011;45702;52.982;6.658;2022-12-07T10:12:29;16.73;;;2.65;;
58864;SDS011;45702;52.982;6.658;2022-12-07T10:15:00;13.77;;;2.80;;
58864;SDS011;45702;52.982;6.658;2022-12-07T10:17:38;9.68;;;2.00;;
58864;SDS011;45702;52.982;6.658;2022-12-07T10:22:34;12.52;;;2.17;;
58864;SDS011;45702;52.982;6.658;2022-12-07T10:25:07;12.63;;;2.47;;
58864;SDS011;45702;52.982;6.658;2022-12-07T10:27:34;14.15;;;3.10;;
58864;SDS011;45702;52.982;6.658;2022-12-07T10:30:01;14.45;;;2.65;;
58864;SDS011;45702;52.982;6.658;2022-12-07T10:32:34;13.63;;;2.30;;
58864;SDS011;45702;52.982;6.658;2022-12-07T10:37:45;11.43;;;2.17;;
58864;SDS011;45702;52.982;6.658;2022-12-07T10:40:33;12.98;;;2.85;;
58864;SDS011;45702;52.982;6.658;2022-12-07T10:43:06;20.27;;;4.20;;
58864;SDS011;45702;52.982;6.658;2022-12-07T10:45:34;13.15;;;2.97;;
58864;SDS011;45702;52.982;6.658;2022-12-07T10:56:16;18.25;;;2.67;;
58864;SDS011;45702;52.982;6.658;2022-12-07T10:58:58;12.63;;;2.60;;
58864;SDS011;45702;52.982;6.658;2022-12-07T11:01:29;19.30;;;2.60;;
58864;SDS011;45702;52.982;6.658;2022-12-07T11:12:28;8.57;;;2.28;;
58864;SDS011;45702;52.982;6.658;2022-12-07T11:22:30;14.60;;;2.95;;
58864;SDS011;45702;52.982;6.658;2022-12-07T11:25:11;11.15;;;2.60;;
58864;SDS011;45702;52.982;6.658;2022-12-07T11:27:47;14.32;;;2.42;;
58864;SDS011;45702;52.982;6.658;2022-12-07T11:30:18;9.10;;;2.45;;
58864;SDS011;45702;52.982;6.658;2022-12-07T11:35:31;10.82;;;1.95;;
58864;SDS011;45702;52.982;6.658;2022-12-07T11:40:26;9.38;;;2.20;;
58864;SDS011;45702;52.982;6.658;2022-12-07T11:45:30;12.25;;;2.55;;
58864;SDS011;45702;52.982;6.658;2022-12-07T11:50:54;6.90;;;1.85;;
58864;SDS011;45702;52.982;6.658;2022-12-07T11:53:23;9.70;;;1.77;;
58864;SDS011;45702;52.982;6.658;2022-12-07T11:56:26;14.60;;;2.10;;
58864;SDS011;45702;52.982;6.658;2022-12-07T12:01:32;6.10;;;1.30;;
58864;SDS011;45702;52.982;6.658;2022-12-07T12:06:35;7.03;;;1.60;;
58864;SDS011;45702;52.982;6.658;2022-12-07T12:09:18;11.10;;;1.90;;
58864;SDS011;45702;52.982;6.658;2022-12-07T12:16:44;15.57;;;2.38;;
58864;SDS011;45702;52.982;6.658;2022-12-07T12:22:15;14.73;;;3.42;;
58864;SDS011;45702;52.982;6.658;2022-12-07T12:24:47;12.77;;;2.33;;
58864;SDS011;45702;52.982;6.658;2022-12-07T12:27:37;15.73;;;3.22;;
58864;SDS011;45702;52.982;6.658;2022-12-07T12:30:04;12.30;;;2.35;;
58864;SDS011;45702;52.982;6.658;2022-12-07T12:32:40;9.55;;;2.40;;
58864;SDS011;45702;52.982;6.658;2022-12-07T12:37:53;10.35;;;2.30;;
58864;SDS011;45702;52.982;6.658;2022-12-07T12:42:50;18.25;;;2.38;;
58864;SDS011;45702;52.982;6.658;2022-12-07T12:45:18;9.68;;;2.20;;
58864;SDS011;45702;52.982;6.658;2022-12-07T12:57:34;13.48;;;2.33;;
58864;SDS011;45702;52.982;6.658;2022-12-07T13:00:19;12.88;;;2.92;;
58864;SDS011;45702;52.982;6.658;2022-12-07T13:02:53;12.10;;;2.50;;
58864;SDS011;45702;52.982;6.658;2022-12-07T13:05:20;11.73;;;2.13;;
58864;SDS011;45702;52.982;6.658;2022-12-07T13:10:29;8.93;;;1.40;;
58864;SDS011;45702;52.982;6.658;2022-12-07T13:12:58;6.70;;;1.63;;
58864;SDS011;45702;52.982;6.658;2022-12-07T13:15:37;8.45;;;2.10;;
58864;SDS011;45702;52.982;6.658;2022-12-07T13:26:04;5.72;;;1.60;;
58864;SDS011;45702;52.982;6.658;2022-12-07T13:28:38;4.28;;;1.73;;
58864;SDS011;45702;52.982;6.658;2022-12-07T13:31:11;5.40;;;1.40;;
58864;SDS011;45702;52.982;6.658;2022-12-07T13:33:38;5.88;;;1.80;;
58864;SDS011;45702;52.982;6.658;2022-12-07T13:36:04;6.60;;;1.48;;
58864;SDS011;45702;52.982;6.658;2022-12-07T13:38:36;4.40;;;1.30;;
58864;SDS011;45702;52.982;6.658;2022-12-07T13:41:04;4.38;;;2.00;;
58864;SDS011;45702;52.982;6.658;2022-12-07T13:43:30;4.55;;;1.50;;
58864;SDS011;45702;52.982;6.658;2022-12-07T13:45:57;7.15;;;1.30;;
58864;SDS011;45702;52.982;6.658;2022-12-07T13:51:27;3.50;;;1.20;;
58864;SDS011;45702;52.982;6.658;2022-12-07T13:53:54;2.58;;;1.20;;
58864;SDS011;45702;52.982;6.658;2022-12-07T13:56:21;4.20;;;1.00;;
58864;SDS011;45702;52.982;6.658;2022-12-07T13:58:47;3.47;;;1.00;;
58864;SDS011;45702;52.982;6.658;2022-12-07T14:01:13;2.90;;;0.90;;
58864;SDS011;45702;52.982;6.658;2022-12-07T14:03:40;6.30;;;1.00;;
58864;SDS011;45702;52.982;6.658;2022-12-07T14:08:42;6.05;;;1.33;;
58864;SDS011;45702;52.982;6.658;2022-12-07T14:11:18;4.65;;;1.40;;
58864;SDS011;45702;52.982;6.658;2022-12-07T14:13:51;7.78;;;1.80;;
58864;SDS011;45702;52.982;6.658;2022-12-07T14:18:54;5.85;;;1.88;;
58864;SDS011;45702;52.982;6.658;2022-12-07T14:21:22;5.97;;;1.70;;
58864;SDS011;45702;52.982;6.658;2022-12-07T14:26:33;5.72;;;1.50;;
58864;SDS011;45702;52.982;6.658;2022-12-07T14:31:44;4.60;;;1.92;;
58864;SDS011;45702;52.982;6.658;2022-12-07T14:34:14;5.85;;;2.80;;
58864;SDS011;45702;52.982;6.658;2022-12-07T14:36:40;8.68;;;1.83;;
58864;SDS011;45702;52.982;6.658;2022-12-07T14:39:07;3.60;;;1.20;;
58864;SDS011;45702;52.982;6.658;2022-12-07T14:41:33;6.80;;;1.70;;
58864;SDS011;45702;52.982;6.658;2022-12-07T14:44:21;3.67;;;1.50;;
58864;SDS011;45702;52.982;6.658;2022-12-07T14:46:48;12.27;;;1.88;;
58864;SDS011;45702;52.982;6.658;2022-12-07T14:49:15;20.80;;;2.17;;
58864;SDS011;45702;52.982;6.658;2022-12-07T14:51:42;10.60;;;2.22;;
58864;SDS011;45702;52.982;6.658;2022-12-07T14:54:19;11.55;;;2.28;;
58864;SDS011;45702;52.982;6.658;2022-12-07T14:56:46;7.32;;;1.98;;
58864;SDS011;45702;52.982;6.658;2022-12-07T14:59:16;5.43;;;2.10;;
58864;SDS011;45702;52.982;6.658;2022-12-07T15:01:43;12.07;;;2.67;;
58864;SDS011;45702;52.982;6.658;2022-12-07T15:04:10;4.43;;;2.30;;
58864;SDS011;45702;52.982;6.658;2022-12-07T15:06:36;8.30;;;2.85;;
58864;SDS011;45702;52.982;6.658;2022-12-07T15:09:02;6.82;;;2.20;;
58864;SDS011;45702;52.982;6.658;2022-12-07T15:11:28;7.78;;;3.28;;
58864;SDS011;45702;52.982;6.658;2022-12-07T15:13:54;12.32;;;3.80;;
58864;SDS011;45702;52.982;6.658;2022-12-07T15:16:33;13.18;;;4.25;;
58864;SDS011;45702;52.982;6.658;2022-12-07T15:18:59;11.88;;;3.70;;
58864;SDS011;45702;52.982;6.658;2022-12-07T15:21:28;11.55;;;4.10;;
58864;SDS011;45702;52.982;6.658;2022-12-07T15:23:55;9.60;;;3.88;;
58864;SDS011;45702;52.982;6.658;2022-12-07T15:26:21;13.00;;;4.18;;
58864;SDS011;45702;52.982;6.658;2022-12-07T15:28:47;11.30;;;3.50;;
58864;SDS011;45702;52.982;6.658;2022-12-07T15:31:14;12.05;;;3.95;;
58864;SDS011;45702;52.982;6.658;2022-12-07T15:33:41;12.48;;;3.97;;
58864;SDS011;45702;52.982;6.658;2022-12-07T15:36:09;12.35;;;4.32;;
58864;SDS011;45702;52.982;6.658;2022-12-07T15:38:43;13.30;;;4.95;;
58864;SDS011;45702;52.982;6.658;2022-12-07T15:41:09;9.65;;;3.60;;
58864;SDS011;45702;52.982;6.658;2022-12-07T15:43:36;12.02;;;3.65;;
58864;SDS011;45702;52.982;6.658;2022-12-07T15:46:20;14.45;;;3.60;;
58864;SDS011;45702;52.982;6.658;2022-12-07T15:48:46;9.27;;;3.50;;
58864;SDS011;45702;52.982;6.658;2022-12-07T15:51:12;15.13;;;3.60;;
58864;SDS011;45702;52.982;6.658;2022-12-07T15:53:39;10.40;;;3.63;;
58864;SDS011;45702;52.982;6.658;2022-12-07T15:56:06;10.25;;;4.25;;
58864;SDS011;45702;52.982;6.658;2022-12-07T15:58:32;13.57;;;5.10;;
58864;SDS011;45702;52.982;6.658;2022-12-07T16:00:58;12.13;;;4.95;;
58864;SDS011;45702;52.982;6.658;2022-12-07T16:03:24;17.17;;;8.20;;
58864;SDS011;45702;52.982;6.658;2022-12-07T16:05:50;20.60;;;7.80;;
58864;SDS011;45702;52.982;6.658;2022-12-07T16:08:17;16.15;;;7.03;;
58864;SDS011;45702;52.982;6.658;2022-12-07T16:10:43;20.90;;;8.68;;
58864;SDS011;45702;52.982;6.658;2022-12-07T16:13:10;22.98;;;10.77;;
58864;SDS011;45702;52.982;6.658;2022-12-07T16:15:39;22.80;;;12.40;;
58864;SDS011;45702;52.982;6.658;2022-12-07T16:18:05;21.38;;;10.60;;
58864;SDS011;45702;52.982;6.658;2022-12-07T16:20:31;24.70;;;10.50;;
58864;SDS011;45702;52.982;6.658;2022-12-07T16:22:57;16.48;;;7.13;;
58864;SDS011;45702;52.982;6.658;2022-12-07T16:25:23;15.63;;;6.57;;
58864;SDS011;45702;52.982;6.658;2022-12-07T16:27:53;14.23;;;5.68;;
58864;SDS011;45702;52.982;6.658;2022-12-07T16:30:19;14.07;;;4.25;;
58864;SDS011;45702;52.982;6.658;2022-12-07T16:32:45;18.17;;;4.35;;
58864;SDS011;45702;52.982;6.658;2022-12-07T16:35:11;18.35;;;4.30;;
58864;SDS011;45702;52.982;6.658;2022-12-07T16:37:38;14.13;;;3.88;;
58864;SDS011;45702;52.982;6.658;2022-12-07T16:40:05;10.90;;;3.88;;
58864;SDS011;45702;52.982;6.658;2022-12-07T16:42:32;12.20;;;3.67;;